createdAt,value
2016-09-27T00:00:39.005Z,0
2016-09-27T00:01:39.697Z,0
2016-09-27T00:02:40.389Z,0
2016-09-27T00:03:41.122Z,0
2016-09-27T00:04:41.865Z,0
2016-09-27T00:05:42.571Z,0
2016-09-27T00:06:43.264Z,0
2016-09-27T00:07:43.940Z,0
2016-09-27T00:08:44.636Z,0
2016-09-27T00:09:45.357Z,0
2016-09-27T00:10:46.069Z,0
2016-09-27T00:11:46.798Z,0
2016-09-27T00:12:47.503Z,0
2016-09-27T00:13:48.204Z,0
2016-09-27T00:14:48.930Z,0
2016-09-27T00:15:49.636Z,0
2016-09-27T00:16:50.305Z,0
2016-09-27T00:17:50.997Z,0
2016-09-27T00:18:51.704Z,0
2016-09-27T00:19:52.408Z,0
2016-09-27T00:20:53.139Z,0
2016-09-27T00:21:53.836Z,0
2016-09-27T00:22:54.533Z,0
2016-09-27T00:23:55.235Z,0
2016-09-27T00:24:55.928Z,0
2016-09-27T00:25:56.663Z,0
2016-09-27T00:26:57.368Z,0
2016-09-27T00:27:58.075Z,0
2016-09-27T00:28:58.766Z,0
2016-09-27T00:29:59.478Z,0
2016-09-27T00:31:00.209Z,0
2016-09-27T00:32:00.921Z,0
2016-09-27T00:33:01.609Z,0
2016-09-27T00:34:02.307Z,0
2016-09-27T00:35:03.002Z,0
2016-09-27T00:36:03.729Z,0
2016-09-27T00:37:04.400Z,0
2016-09-27T00:38:05.091Z,0
2016-09-27T00:39:05.777Z,0
2016-09-27T00:40:06.473Z,0
2016-09-27T00:41:07.161Z,0
2016-09-27T00:42:07.864Z,0
2016-09-27T00:43:08.557Z,0
2016-09-27T00:44:09.249Z,0
2016-09-27T00:45:09.936Z,0
2016-09-27T00:46:10.625Z,0
2016-09-27T00:47:11.309Z,0
2016-09-27T00:48:11.997Z,0
2016-09-27T00:49:12.675Z,0
2016-09-27T00:50:13.362Z,0
2016-09-27T00:51:14.045Z,0
2016-09-27T00:52:14.752Z,0
2016-09-27T00:53:15.427Z,0
2016-09-27T00:54:16.109Z,0
2016-09-27T00:55:16.808Z,0
2016-09-27T00:56:17.495Z,0
2016-09-27T00:57:18.187Z,0
2016-09-27T00:58:18.881Z,0
2016-09-27T00:59:19.563Z,0
2016-09-27T01:00:20.260Z,0
2016-09-27T01:01:20.941Z,0
2016-09-27T01:02:21.627Z,0
2016-09-27T01:03:22.321Z,0
2016-09-27T01:04:23.014Z,0
2016-09-27T01:05:23.709Z,0
2016-09-27T01:06:24.391Z,0
2016-09-27T01:07:25.089Z,0
2016-09-27T01:08:25.776Z,0
2016-09-27T01:09:26.460Z,0
2016-09-27T01:10:27.170Z,0
2016-09-27T01:11:27.854Z,0
2016-09-27T01:12:28.550Z,0
2016-09-27T01:13:29.247Z,0
2016-09-27T01:14:29.971Z,0
2016-09-27T01:15:30.674Z,0
2016-09-27T01:16:31.360Z,0
2016-09-27T01:17:32.047Z,0
2016-09-27T01:18:32.753Z,0
2016-09-27T01:19:33.446Z,0
2016-09-27T01:20:34.148Z,0
2016-09-27T01:21:34.838Z,0
2016-09-27T01:22:36.171Z,0
2016-09-27T01:23:37.067Z,0
2016-09-27T01:24:38.317Z,0
2016-09-27T01:25:39.716Z,0
2016-09-27T01:26:41.450Z,0
2016-09-27T01:27:43.307Z,0
2016-09-27T01:28:44.129Z,0
2016-09-27T01:29:45.328Z,0
2016-09-27T01:30:46.416Z,0
2016-09-27T01:31:47.175Z,0
2016-09-27T01:32:48.423Z,0
2016-09-27T01:33:49.425Z,0
2016-09-27T01:34:50.478Z,0
2016-09-27T01:35:51.647Z,0
2016-09-27T01:36:52.463Z,0
2016-09-27T01:37:53.217Z,0
2016-09-27T01:38:53.979Z,0
2016-09-27T01:39:54.754Z,0
2016-09-27T01:40:55.545Z,0
2016-09-27T01:41:56.322Z,0
2016-09-27T01:42:57.082Z,0
2016-09-27T01:43:57.856Z,0
2016-09-27T01:44:58.764Z,0
2016-09-27T01:45:59.450Z,0
2016-09-27T01:47:00.287Z,0
2016-09-27T01:48:01.122Z,0
2016-09-27T01:49:01.906Z,0
2016-09-27T01:50:02.612Z,0
2016-09-27T01:51:03.331Z,0
2016-09-27T01:52:04.131Z,0
2016-09-27T01:53:05.148Z,0
2016-09-27T01:54:06.115Z,0
2016-09-27T01:55:06.961Z,0
2016-09-27T01:56:07.673Z,0
2016-09-27T01:57:08.371Z,0
2016-09-27T01:58:09.111Z,0
2016-09-27T01:59:09.979Z,0
2016-09-27T02:00:11.116Z,0
2016-09-27T02:01:12.309Z,0
2016-09-27T02:02:13.124Z,0
2016-09-27T02:03:13.829Z,0
2016-09-27T02:04:14.942Z,0
2016-09-27T02:05:17.912Z,0
2016-09-27T02:06:20.706Z,0
2016-09-27T02:07:23.624Z,0
2016-09-27T02:08:26.471Z,0
2016-09-27T02:09:29.486Z,0
2016-09-27T02:10:32.259Z,0
2016-09-27T02:11:35.033Z,0
2016-09-27T02:12:38.005Z,0
2016-09-27T02:13:40.840Z,0
2016-09-27T02:14:43.728Z,0
2016-09-27T02:15:46.519Z,0
2016-09-27T02:16:49.348Z,0
2016-09-27T02:17:51.541Z,0
2016-09-27T02:18:52.255Z,0
2016-09-27T02:19:52.948Z,0
2016-09-27T02:20:53.640Z,0
2016-09-27T02:21:54.344Z,0
2016-09-27T02:22:55.051Z,0
2016-09-27T02:23:55.737Z,0
2016-09-27T02:24:56.453Z,0
2016-09-27T02:25:57.159Z,0
2016-09-27T02:26:57.850Z,0
2016-09-27T02:27:58.532Z,0
2016-09-27T02:28:59.222Z,0
2016-09-27T02:29:59.915Z,0
2016-09-27T02:31:00.604Z,0
2016-09-27T02:32:01.291Z,0
2016-09-27T02:33:01.996Z,0
2016-09-27T02:34:02.706Z,0
2016-09-27T02:35:03.390Z,0
2016-09-27T02:36:04.084Z,0
2016-09-27T02:37:04.788Z,0
2016-09-27T02:38:05.481Z,0
2016-09-27T02:39:06.225Z,0
2016-09-27T02:40:06.906Z,0
2016-09-27T02:41:07.597Z,0
2016-09-27T02:42:08.324Z,0
2016-09-27T02:43:08.992Z,0
2016-09-27T02:44:09.685Z,0
2016-09-27T02:45:10.371Z,0
2016-09-27T02:46:11.068Z,0
2016-09-27T02:47:11.760Z,0
2016-09-27T02:48:12.453Z,0
2016-09-27T02:49:13.172Z,0
2016-09-27T02:50:13.852Z,0
2016-09-27T02:51:14.540Z,0
2016-09-27T02:52:15.225Z,0
2016-09-27T02:53:15.923Z,0
2016-09-27T02:54:16.614Z,0
2016-09-27T02:55:17.334Z,0
2016-09-27T02:56:18.023Z,0
2016-09-27T02:57:18.725Z,0
2016-09-27T02:58:19.409Z,0
2016-09-27T02:59:20.102Z,0
2016-09-27T03:00:20.791Z,0
2016-09-27T03:01:21.477Z,0
2016-09-27T03:02:22.191Z,0
2016-09-27T03:03:22.880Z,0
2016-09-27T03:04:23.561Z,0
2016-09-27T03:05:24.261Z,0
2016-09-27T03:06:24.975Z,0
2016-09-27T03:07:25.657Z,0
2016-09-27T03:08:26.346Z,0
2016-09-27T03:09:27.035Z,0
2016-09-27T03:10:27.714Z,0
2016-09-27T03:11:28.411Z,0
2016-09-27T03:12:29.087Z,0
2016-09-27T03:13:29.789Z,0
2016-09-27T03:14:30.466Z,0
2016-09-27T03:15:31.151Z,0
2016-09-27T03:16:31.867Z,0
2016-09-27T03:17:32.542Z,0
2016-09-27T03:18:33.259Z,0
2016-09-27T03:19:33.935Z,0
2016-09-27T03:20:34.651Z,0
2016-09-27T03:21:35.346Z,0
2016-09-27T03:22:36.051Z,0
2016-09-27T03:23:36.774Z,0
2016-09-27T03:24:37.486Z,0
2016-09-27T03:25:38.171Z,0
2016-09-27T03:26:38.894Z,0
2016-09-27T03:27:39.576Z,0
2016-09-27T03:28:40.281Z,0
2016-09-27T03:29:40.969Z,0
2016-09-27T03:30:41.697Z,0
2016-09-27T03:31:42.400Z,0
2016-09-27T03:32:43.185Z,0
2016-09-27T03:33:43.875Z,0
2016-09-27T03:34:44.565Z,0
2016-09-27T03:35:45.246Z,0
2016-09-27T03:36:45.942Z,0
2016-09-27T03:37:46.647Z,0
2016-09-27T03:38:47.320Z,0
2016-09-27T03:39:48.012Z,0
2016-09-27T03:40:48.713Z,0
2016-09-27T03:41:49.417Z,0
2016-09-27T03:42:50.106Z,0
2016-09-27T03:43:50.794Z,0
2016-09-27T03:44:51.500Z,0
2016-09-27T03:45:52.211Z,0
2016-09-27T03:46:52.899Z,0
2016-09-27T03:47:53.591Z,0
2016-09-27T03:48:54.277Z,0
2016-09-27T03:49:54.968Z,0
2016-09-27T03:50:55.654Z,0
2016-09-27T03:51:56.359Z,0
2016-09-27T03:52:57.089Z,0
2016-09-27T03:53:57.795Z,0
2016-09-27T03:54:58.487Z,0
2016-09-27T03:55:59.190Z,0
2016-09-27T03:56:59.892Z,0
2016-09-27T03:58:00.603Z,0
2016-09-27T03:59:01.286Z,0
2016-09-27T04:00:01.993Z,0
2016-09-27T04:01:02.719Z,0
2016-09-27T04:02:03.403Z,0
2016-09-27T04:03:04.101Z,0
2016-09-27T04:04:04.827Z,0
2016-09-27T04:05:05.516Z,0
2016-09-27T04:06:06.211Z,0
2016-09-27T04:07:06.912Z,0
2016-09-27T04:08:07.591Z,0
2016-09-27T04:09:08.285Z,0
2016-09-27T04:10:08.973Z,0
2016-09-27T04:11:09.659Z,0
2016-09-27T04:12:10.361Z,0
2016-09-27T04:13:11.080Z,0
2016-09-27T04:14:11.778Z,0
2016-09-27T04:15:12.468Z,0
2016-09-27T04:16:13.163Z,0
2016-09-27T04:17:13.896Z,0
2016-09-27T04:18:14.586Z,0
2016-09-27T04:19:15.307Z,0
2016-09-27T04:20:16.015Z,0
2016-09-27T04:21:16.715Z,0
2016-09-27T04:22:17.389Z,0
2016-09-27T04:23:18.081Z,0
2016-09-27T04:24:18.776Z,0
2016-09-27T04:25:19.456Z,0
2016-09-27T04:26:20.169Z,0
2016-09-27T04:27:20.908Z,0
2016-09-27T04:28:21.597Z,0
2016-09-27T04:29:22.319Z,0
2016-09-27T04:30:23.007Z,0
2016-09-27T04:31:23.697Z,0
2016-09-27T04:32:24.404Z,0
2016-09-27T04:33:25.093Z,0
2016-09-27T04:34:25.803Z,0
2016-09-27T04:35:27.177Z,0
2016-09-27T04:36:28.768Z,0
2016-09-27T04:37:29.359Z,0
2016-09-27T04:38:30.076Z,0
2016-09-27T04:39:30.775Z,0
2016-09-27T04:40:31.486Z,0
2016-09-27T04:41:32.192Z,0
2016-09-27T04:42:33.045Z,0
2016-09-27T04:43:33.656Z,0
2016-09-27T04:44:34.367Z,0
2016-09-27T04:45:35.042Z,0
2016-09-27T04:46:35.772Z,0
2016-09-27T04:47:36.484Z,0
2016-09-27T04:48:37.158Z,0
2016-09-27T04:49:37.837Z,0
2016-09-27T04:50:38.562Z,0
2016-09-27T04:51:39.232Z,0
2016-09-27T04:52:39.916Z,0
2016-09-27T04:53:40.628Z,0
2016-09-27T04:54:41.352Z,0
2016-09-27T04:55:42.081Z,0
2016-09-27T04:56:42.795Z,0
2016-09-27T04:57:43.514Z,0
2016-09-27T04:58:44.260Z,0
2016-09-27T04:59:44.958Z,0
2016-09-27T05:00:45.677Z,0
2016-09-27T05:01:46.372Z,0
2016-09-27T05:02:47.081Z,0
2016-09-27T05:03:47.764Z,0
2016-09-27T05:04:48.441Z,0
2016-09-27T05:05:49.193Z,0
2016-09-27T05:06:49.871Z,0
2016-09-27T05:07:50.592Z,0
2016-09-27T05:08:51.286Z,5
2016-09-27T05:09:52.003Z,5
2016-09-27T05:10:52.708Z,5
2016-09-27T05:11:53.383Z,5
2016-09-27T05:12:54.082Z,5
2016-09-27T05:13:54.776Z,5
2016-09-27T05:14:55.465Z,5
2016-09-27T05:15:56.186Z,5
2016-09-27T05:16:56.870Z,5
2016-09-27T05:17:57.578Z,5
2016-09-27T05:18:58.263Z,10
2016-09-27T05:19:58.966Z,10
2016-09-27T05:20:59.661Z,10
2016-09-27T05:22:00.346Z,10
2016-09-27T05:23:01.039Z,10
2016-09-27T05:24:01.759Z,10
2016-09-27T05:25:02.478Z,10
2016-09-27T05:26:03.205Z,15
2016-09-27T05:27:03.894Z,15
2016-09-27T05:28:04.585Z,15
2016-09-27T05:29:05.285Z,15
2016-09-27T05:30:05.965Z,20
2016-09-27T05:31:06.653Z,20
2016-09-27T05:32:07.341Z,20
2016-09-27T05:33:08.029Z,20
2016-09-27T05:34:08.727Z,25
2016-09-27T05:35:09.425Z,25
2016-09-27T05:36:10.128Z,25
2016-09-27T05:37:10.822Z,30
2016-09-27T05:38:11.516Z,30
2016-09-27T05:39:12.213Z,30
2016-09-27T05:40:12.900Z,30
2016-09-27T05:41:13.612Z,30
2016-09-27T05:42:14.302Z,30
2016-09-27T05:43:15.031Z,35
2016-09-27T05:44:15.718Z,35
2016-09-27T05:45:16.407Z,35
2016-09-27T05:46:17.104Z,40
2016-09-27T05:47:17.812Z,40
2016-09-27T05:48:18.505Z,45
2016-09-27T05:49:19.217Z,50
2016-09-27T05:50:19.950Z,50
2016-09-27T05:51:20.649Z,55
2016-09-27T05:52:21.365Z,60
2016-09-27T05:53:22.077Z,65
2016-09-27T05:54:22.773Z,70
2016-09-27T05:55:23.458Z,65
2016-09-27T05:56:24.163Z,70
2016-09-27T05:57:24.852Z,75
2016-09-27T05:58:25.538Z,80
2016-09-27T05:59:26.244Z,85
2016-09-27T06:00:26.949Z,90
2016-09-27T06:01:27.637Z,95
2016-09-27T06:02:28.316Z,95
2016-09-27T06:03:29.043Z,100
2016-09-27T06:04:29.748Z,100
2016-09-27T06:05:30.438Z,105
2016-09-27T06:06:31.153Z,110
2016-09-27T06:07:31.836Z,110
2016-09-27T06:08:32.538Z,115
2016-09-27T06:09:33.225Z,115
2016-09-27T06:10:33.943Z,115
2016-09-27T06:11:34.657Z,115
2016-09-27T06:12:35.345Z,115
2016-09-27T06:13:36.034Z,115
2016-09-27T06:14:36.727Z,115
2016-09-27T06:15:37.458Z,115
2016-09-27T06:16:38.178Z,115
2016-09-27T06:17:38.865Z,110
2016-09-27T06:18:39.571Z,110
2016-09-27T06:19:40.262Z,110
2016-09-27T06:20:40.966Z,110
2016-09-27T06:21:41.682Z,115
2016-09-27T06:22:42.374Z,120
2016-09-27T06:23:43.074Z,125
2016-09-27T06:24:43.761Z,135
2016-09-27T06:25:44.473Z,130
2016-09-27T06:26:45.163Z,140
2016-09-27T06:27:45.892Z,135
2016-09-27T06:28:46.629Z,135
2016-09-27T06:29:47.341Z,135
2016-09-27T06:30:48.047Z,135
2016-09-27T06:31:48.739Z,135
2016-09-27T06:32:49.445Z,145
2016-09-27T06:33:50.167Z,135
2016-09-27T06:34:50.874Z,125
2016-09-27T06:35:51.570Z,140
2016-09-27T06:36:52.280Z,155
2016-09-27T06:37:52.982Z,160
2016-09-27T06:38:53.674Z,280
2016-09-27T06:39:54.386Z,540
2016-09-27T06:40:55.082Z,280
2016-09-27T06:41:55.780Z,630
2016-09-27T06:42:56.587Z,670
2016-09-27T06:43:57.281Z,670
2016-09-27T06:44:57.980Z,770
2016-09-27T06:45:58.678Z,780
2016-09-27T06:46:59.369Z,790
2016-09-27T06:48:00.074Z,800
2016-09-27T06:49:00.762Z,810
2016-09-27T06:50:01.475Z,785
2016-09-27T06:51:02.167Z,745
2016-09-27T06:52:02.867Z,820
2016-09-27T06:53:03.569Z,835
2016-09-27T06:54:04.265Z,850
2016-09-27T06:55:04.966Z,860
2016-09-27T06:56:05.682Z,860
2016-09-27T06:57:06.387Z,860
2016-09-27T06:58:07.105Z,870
2016-09-27T06:59:07.830Z,895
2016-09-27T07:00:08.529Z,935
2016-09-27T07:01:09.230Z,955
2016-09-27T07:02:09.933Z,975
2016-09-27T07:03:10.631Z,990
2016-09-27T07:04:11.342Z,1010
2016-09-27T07:05:12.052Z,1020
2016-09-27T07:06:12.755Z,1045
2016-09-27T07:07:13.462Z,1060
2016-09-27T07:08:14.159Z,1080
2016-09-27T07:09:14.865Z,1085
2016-09-27T07:10:15.551Z,1085
2016-09-27T07:11:16.265Z,1080
2016-09-27T07:12:16.980Z,1075
2016-09-27T07:13:17.701Z,1090
2016-09-27T07:14:18.413Z,1105
2016-09-27T07:15:19.133Z,1125
2016-09-27T07:16:19.833Z,1135
2016-09-27T07:17:20.553Z,1125
2016-09-27T07:18:21.265Z,1110
2016-09-27T07:19:21.982Z,1105
2016-09-27T07:20:22.674Z,1090
2016-09-27T07:21:23.374Z,1085
2016-09-27T07:22:24.077Z,1100
2016-09-27T07:23:24.786Z,1105
2016-09-27T07:24:25.493Z,1120
2016-09-27T07:25:26.193Z,1150
2016-09-27T07:26:26.890Z,1155
2016-09-27T07:27:27.608Z,1160
2016-09-27T07:28:28.333Z,1190
2016-09-27T07:29:29.048Z,1215
2016-09-27T07:30:29.745Z,1245
2016-09-27T07:31:30.459Z,1260
2016-09-27T07:32:31.153Z,1270
2016-09-27T07:33:31.844Z,1290
2016-09-27T07:34:32.562Z,1300
2016-09-27T07:35:33.270Z,1295
2016-09-27T07:36:33.986Z,1310
2016-09-27T07:37:34.686Z,1325
2016-09-27T07:38:35.418Z,1340
2016-09-27T07:39:36.113Z,1350
2016-09-27T07:40:36.839Z,1365
2016-09-27T07:41:37.535Z,1380
2016-09-27T07:42:38.235Z,1395
2016-09-27T07:43:38.939Z,1395
2016-09-27T07:44:39.643Z,1385
2016-09-27T07:45:40.349Z,1290
2016-09-27T07:46:41.038Z,990
2016-09-27T07:47:41.804Z,795
2016-09-27T07:48:42.505Z,520
2016-09-27T07:49:43.209Z,680
2016-09-27T07:50:43.939Z,1160
2016-09-27T07:51:44.640Z,810
2016-09-27T07:52:45.361Z,330
2016-09-27T07:53:46.057Z,345
2016-09-27T07:54:46.769Z,545
2016-09-27T07:55:47.492Z,960
2016-09-27T07:56:48.214Z,1365
2016-09-27T07:57:48.910Z,1440
2016-09-27T07:58:49.623Z,1425
2016-09-27T07:59:50.352Z,1410
2016-09-27T08:00:51.074Z,1390
2016-09-27T08:01:51.789Z,1400
2016-09-27T08:02:52.517Z,1405
2016-09-27T08:03:53.227Z,1405
2016-09-27T08:04:53.953Z,1405
2016-09-27T08:05:54.652Z,1430
2016-09-27T08:06:55.364Z,1485
2016-09-27T08:07:56.068Z,1520
2016-09-27T08:08:56.768Z,1540
2016-09-27T08:09:57.485Z,1565
2016-09-27T08:10:58.192Z,1560
2016-09-27T08:11:58.895Z,1525
2016-09-27T08:12:59.597Z,1495
2016-09-27T08:14:00.315Z,1495
2016-09-27T08:15:01.051Z,1490
2016-09-27T08:16:01.769Z,1500
2016-09-27T08:17:02.491Z,1515
2016-09-27T08:18:03.225Z,1530
2016-09-27T08:19:03.939Z,1535
2016-09-27T08:20:04.670Z,1510
2016-09-27T08:21:05.380Z,1465
2016-09-27T08:22:06.104Z,1435
2016-09-27T08:23:06.831Z,1425
2016-09-27T08:24:07.792Z,1425
2016-09-27T08:25:08.388Z,1465
2016-09-27T08:26:09.100Z,1510
2016-09-27T08:27:09.822Z,1535
2016-09-27T08:28:10.551Z,1570
2016-09-27T08:29:11.277Z,1590
2016-09-27T08:30:12.005Z,1575
2016-09-27T08:31:12.733Z,1555
2016-09-27T08:32:13.481Z,1310
2016-09-27T08:33:14.191Z,955
2016-09-27T08:34:14.889Z,980
2016-09-27T08:35:15.615Z,1250
2016-09-27T08:36:16.334Z,1475
2016-09-27T08:37:17.052Z,1610
2016-09-27T08:38:17.755Z,1630
2016-09-27T08:39:18.469Z,1650
2016-09-27T08:40:19.183Z,1660
2016-09-27T08:41:19.895Z,1700
2016-09-27T08:42:20.610Z,1710
2016-09-27T08:43:21.307Z,1735
2016-09-27T08:44:22.020Z,1755
2016-09-27T08:45:22.778Z,1735
2016-09-27T08:46:23.524Z,1700
2016-09-27T08:47:24.269Z,1680
2016-09-27T08:48:24.984Z,1670
2016-09-27T08:49:25.694Z,1670
2016-09-27T08:50:26.391Z,1680
2016-09-27T08:51:27.092Z,1680
2016-09-27T08:52:27.827Z,1680
2016-09-27T08:53:28.533Z,1475
2016-09-27T08:54:29.260Z,770
2016-09-27T08:55:29.985Z,570
2016-09-27T08:56:30.704Z,730
2016-09-27T08:57:31.684Z,405
2016-09-27T08:58:32.515Z,235
2016-09-27T08:59:33.517Z,230
2016-09-27T09:00:34.307Z,230
2016-09-27T09:01:35.155Z,225
2016-09-27T09:02:35.872Z,225
2016-09-27T09:03:36.578Z,225
2016-09-27T09:04:37.425Z,220
2016-09-27T09:05:38.145Z,225
2016-09-27T09:06:38.869Z,225
2016-09-27T09:07:39.648Z,220
2016-09-27T09:08:40.413Z,220
2016-09-27T09:09:41.199Z,220
2016-09-27T09:10:41.964Z,220
2016-09-27T09:11:42.754Z,220
2016-09-27T09:12:43.462Z,215
2016-09-27T09:13:44.321Z,215
2016-09-27T09:14:45.206Z,215
2016-09-27T09:15:45.999Z,215
2016-09-27T09:16:46.733Z,210
2016-09-27T09:17:47.454Z,210
2016-09-27T09:18:48.166Z,210
2016-09-27T09:19:48.868Z,210
2016-09-27T09:20:49.600Z,210
2016-09-27T09:21:50.300Z,205
2016-09-27T09:22:51.002Z,205
2016-09-27T09:23:51.703Z,205
2016-09-27T09:24:52.405Z,205
2016-09-27T09:25:53.096Z,200
2016-09-27T09:26:53.795Z,200
2016-09-27T09:27:54.500Z,200
2016-09-27T09:28:55.220Z,200
2016-09-27T09:29:55.988Z,200
2016-09-27T09:30:56.708Z,195
2016-09-27T09:31:57.396Z,195
2016-09-27T09:32:58.149Z,195
2016-09-27T09:33:58.866Z,190
2016-09-27T09:34:59.605Z,190
2016-09-27T09:36:00.313Z,190
2016-09-27T09:37:01.054Z,190
2016-09-27T09:38:01.769Z,190
2016-09-27T09:39:02.470Z,185
2016-09-27T09:40:03.178Z,185
2016-09-27T09:41:03.894Z,185
2016-09-27T09:42:04.614Z,185
2016-09-27T09:43:05.335Z,185
2016-09-27T09:44:06.033Z,185
2016-09-27T09:45:06.737Z,180
2016-09-27T09:46:07.475Z,180
2016-09-27T09:47:08.177Z,180
2016-09-27T09:48:08.875Z,180
2016-09-27T09:49:09.574Z,180
2016-09-27T09:50:10.267Z,180
2016-09-27T09:51:10.988Z,180
2016-09-27T09:52:11.689Z,175
2016-09-27T09:53:12.383Z,175
2016-09-27T09:54:13.088Z,175
2016-09-27T09:55:13.774Z,175
2016-09-27T09:56:14.497Z,175
2016-09-27T09:57:15.196Z,175
2016-09-27T09:58:15.895Z,175
2016-09-27T09:59:16.611Z,180
2016-09-27T10:00:17.315Z,180
2016-09-27T10:01:18.020Z,180
2016-09-27T10:02:18.737Z,180
2016-09-27T10:03:19.447Z,180
2016-09-27T10:04:20.160Z,180
2016-09-27T10:05:20.854Z,180
2016-09-27T10:06:21.566Z,185
2016-09-27T10:07:22.259Z,185
2016-09-27T10:08:22.963Z,185
2016-09-27T10:09:23.793Z,190
2016-09-27T10:10:24.512Z,190
2016-09-27T10:11:25.248Z,195
2016-09-27T10:12:25.975Z,200
2016-09-27T10:13:26.673Z,205
2016-09-27T10:14:27.374Z,210
2016-09-27T10:15:28.074Z,220
2016-09-27T10:16:28.764Z,225
2016-09-27T10:17:29.487Z,215
2016-09-27T10:18:30.187Z,210
2016-09-27T10:19:30.897Z,200
2016-09-27T10:20:31.610Z,205
2016-09-27T10:21:32.309Z,195
2016-09-27T10:22:33.056Z,190
2016-09-27T10:23:33.778Z,190
2016-09-27T10:24:34.482Z,180
2016-09-27T10:25:35.249Z,170
2016-09-27T10:26:35.950Z,165
2016-09-27T10:27:36.652Z,165
2016-09-27T10:28:37.357Z,165
2016-09-27T10:29:38.059Z,170
2016-09-27T10:30:38.773Z,175
2016-09-27T10:31:39.464Z,170
2016-09-27T10:32:40.167Z,170
2016-09-27T10:33:40.872Z,165
2016-09-27T10:34:41.573Z,160
2016-09-27T10:35:42.267Z,155
2016-09-27T10:36:43.022Z,155
2016-09-27T10:37:43.714Z,155
2016-09-27T10:38:44.426Z,155
2016-09-27T10:39:45.121Z,155
2016-09-27T10:40:45.863Z,155
2016-09-27T10:41:46.581Z,150
2016-09-27T10:42:47.291Z,155
2016-09-27T10:43:47.987Z,150
2016-09-27T10:44:48.681Z,150
2016-09-27T10:45:49.377Z,155
2016-09-27T10:46:50.074Z,155
2016-09-27T10:47:50.772Z,155
2016-09-27T10:48:51.495Z,155
2016-09-27T10:49:52.241Z,155
2016-09-27T10:50:52.971Z,155
2016-09-27T10:51:53.668Z,155
2016-09-27T10:52:54.366Z,155
2016-09-27T10:53:55.075Z,155
2016-09-27T10:54:55.784Z,155
2016-09-27T10:55:56.508Z,150
2016-09-27T10:56:57.218Z,140
2016-09-27T10:57:57.951Z,140
2016-09-27T10:58:58.654Z,140
2016-09-27T10:59:59.376Z,140
2016-09-27T11:01:00.089Z,135
2016-09-27T11:02:00.796Z,135
2016-09-27T11:03:01.497Z,135
2016-09-27T11:04:02.214Z,135
2016-09-27T11:05:02.912Z,135
2016-09-27T11:06:03.668Z,130
2016-09-27T11:07:04.393Z,130
2016-09-27T11:08:05.084Z,135
2016-09-27T11:09:05.780Z,135
2016-09-27T11:10:06.480Z,140
2016-09-27T11:11:07.177Z,145
2016-09-27T11:12:07.887Z,150
2016-09-27T11:13:08.581Z,160
2016-09-27T11:14:09.281Z,165
2016-09-27T11:15:10.029Z,165
2016-09-27T11:16:10.725Z,165
2016-09-27T11:17:11.444Z,175
2016-09-27T11:18:12.149Z,175
2016-09-27T11:19:12.839Z,180
2016-09-27T11:20:13.570Z,175
2016-09-27T11:21:14.299Z,175
2016-09-27T11:22:15.005Z,180
2016-09-27T11:23:15.732Z,190
2016-09-27T11:24:16.447Z,200
2016-09-27T11:25:17.164Z,210
2016-09-27T11:26:17.867Z,225
2016-09-27T11:27:18.603Z,235
2016-09-27T11:28:19.322Z,220
2016-09-27T11:29:20.016Z,210
2016-09-27T11:30:20.733Z,215
2016-09-27T11:31:21.448Z,220
2016-09-27T11:32:22.168Z,240
2016-09-27T11:33:22.873Z,255
2016-09-27T11:34:23.580Z,245
2016-09-27T11:35:24.284Z,260
2016-09-27T11:36:24.998Z,270
2016-09-27T11:37:25.708Z,280
2016-09-27T11:38:26.414Z,275
2016-09-27T11:39:27.112Z,250
2016-09-27T11:40:27.824Z,230
2016-09-27T11:41:28.510Z,225
2016-09-27T11:42:29.212Z,240
2016-09-27T11:43:29.910Z,240
2016-09-27T11:44:30.639Z,245
2016-09-27T11:45:31.355Z,255
2016-09-27T11:46:32.044Z,265
2016-09-27T11:47:32.754Z,260
2016-09-27T11:48:33.520Z,240
2016-09-27T11:49:34.250Z,220
2016-09-27T11:50:34.960Z,200
2016-09-27T11:51:35.655Z,185
2016-09-27T11:52:36.363Z,180
2016-09-27T11:53:37.056Z,175
2016-09-27T11:54:37.754Z,170
2016-09-27T11:55:38.446Z,160
2016-09-27T11:56:39.150Z,155
2016-09-27T11:57:39.840Z,150
2016-09-27T11:58:40.548Z,145
2016-09-27T11:59:41.276Z,140
2016-09-27T12:00:42.013Z,135
2016-09-27T12:01:42.729Z,135
2016-09-27T12:02:43.461Z,135
2016-09-27T12:03:44.150Z,130
2016-09-27T12:04:44.856Z,130
2016-09-27T12:05:45.577Z,130
2016-09-27T12:06:46.294Z,130
2016-09-27T12:07:47.026Z,130
2016-09-27T12:08:47.720Z,130
2016-09-27T12:09:48.409Z,130
2016-09-27T12:10:49.098Z,130
2016-09-27T12:11:49.808Z,140
2016-09-27T12:12:50.529Z,155
2016-09-27T12:13:51.209Z,170
2016-09-27T12:14:51.929Z,175
2016-09-27T12:15:52.623Z,170
2016-09-27T12:16:53.328Z,155
2016-09-27T12:17:54.034Z,135
2016-09-27T12:18:54.745Z,130
2016-09-27T12:19:55.451Z,125
2016-09-27T12:20:56.175Z,125
2016-09-27T12:21:56.910Z,125
2016-09-27T12:22:57.615Z,130
2016-09-27T12:23:58.307Z,145
2016-09-27T12:24:59.011Z,150
2016-09-27T12:25:59.798Z,155
2016-09-27T12:27:00.504Z,150
2016-09-27T12:28:01.201Z,135
2016-09-27T12:29:01.911Z,130
2016-09-27T12:30:02.786Z,130
2016-09-27T12:31:03.477Z,130
2016-09-27T12:32:04.224Z,135
2016-09-27T12:33:04.953Z,130
2016-09-27T12:34:05.648Z,130
2016-09-27T12:35:06.342Z,130
2016-09-27T12:36:07.042Z,125
2016-09-27T12:37:07.750Z,125
2016-09-27T12:38:08.472Z,130
2016-09-27T12:39:09.188Z,135
2016-09-27T12:40:09.881Z,145
2016-09-27T12:41:10.589Z,150
2016-09-27T12:42:11.281Z,145
2016-09-27T12:43:11.977Z,135
2016-09-27T12:44:12.871Z,130
2016-09-27T12:45:13.773Z,120
2016-09-27T12:46:14.790Z,120
2016-09-27T12:47:15.717Z,120
2016-09-27T12:48:16.649Z,115
2016-09-27T12:49:17.649Z,115
2016-09-27T12:50:18.717Z,115
2016-09-27T12:51:19.716Z,115
2016-09-27T12:52:20.789Z,115
2016-09-27T12:53:21.866Z,115
2016-09-27T12:54:22.948Z,115
2016-09-27T12:55:24.026Z,115
2016-09-27T12:56:25.107Z,115
2016-09-27T12:57:26.184Z,115
2016-09-27T12:58:27.321Z,110
2016-09-27T12:59:28.434Z,110
2016-09-27T13:00:29.560Z,110
2016-09-27T13:01:30.763Z,110
2016-09-27T19:53:11.191Z,0
2016-09-27T19:54:11.921Z,0
2016-09-27T19:55:12.637Z,0
2016-09-27T19:56:13.310Z,0
2016-09-27T19:57:14.069Z,0
2016-09-27T19:58:14.759Z,0
2016-09-27T19:59:15.435Z,0
2016-09-27T20:00:16.113Z,0
2016-09-27T20:01:16.878Z,0
2016-09-27T20:02:17.605Z,0
2016-09-27T20:03:18.340Z,0
2016-09-27T20:04:19.023Z,0
2016-09-27T20:05:19.839Z,0
2016-09-27T20:06:20.577Z,0
2016-09-27T20:07:21.323Z,0
2016-09-27T20:08:21.998Z,0
2016-09-27T20:09:22.681Z,0
2016-09-27T20:10:23.447Z,0
2016-09-27T20:11:24.139Z,0
2016-09-27T20:12:24.830Z,0
2016-09-27T20:13:25.514Z,0
2016-09-27T20:14:26.197Z,0
2016-09-27T20:15:26.913Z,0
2016-09-27T20:16:27.674Z,0
2016-09-27T20:17:28.375Z,0
2016-09-27T20:18:29.092Z,0
2016-09-27T20:19:29.929Z,0
2016-09-27T20:20:30.651Z,0
2016-09-27T20:21:31.380Z,0
2016-09-27T20:22:32.093Z,0
2016-09-27T20:23:32.807Z,0
2016-09-27T20:24:33.484Z,0
2016-09-27T20:25:34.213Z,0
2016-09-27T20:26:34.933Z,0
2016-09-27T20:27:35.601Z,0
2016-09-27T20:28:36.313Z,0
2016-09-27T20:29:36.998Z,0
2016-09-27T20:30:37.709Z,0
2016-09-27T20:31:38.401Z,0
2016-09-27T20:32:39.109Z,0
2016-09-27T20:33:39.821Z,0
2016-09-27T20:34:40.504Z,0
2016-09-27T20:35:41.191Z,0
2016-09-27T20:36:41.914Z,0
2016-09-27T20:37:42.753Z,0
2016-09-27T20:38:43.450Z,0
2016-09-27T20:39:44.148Z,0
2016-09-27T20:40:44.846Z,0
2016-09-27T20:41:45.518Z,0
2016-09-27T20:42:46.193Z,0
2016-09-27T20:43:46.878Z,0
2016-09-27T20:44:47.581Z,0
2016-09-27T20:45:48.291Z,0
2016-09-27T20:46:48.972Z,0
2016-09-27T20:47:49.671Z,0
2016-09-27T20:48:50.382Z,0
2016-09-27T20:49:51.069Z,0
2016-09-27T20:50:51.747Z,0
2016-09-27T20:51:52.425Z,0
2016-09-27T20:52:53.107Z,0
2016-09-27T20:53:53.825Z,0
2016-09-27T20:54:54.512Z,0
2016-09-27T20:55:55.238Z,0
2016-09-27T20:56:55.928Z,0
2016-09-27T20:57:56.610Z,0
2016-09-27T20:58:57.307Z,0
2016-09-27T20:59:57.997Z,0
2016-09-27T21:00:58.688Z,0
2016-09-27T21:01:59.357Z,0
2016-09-27T21:03:00.065Z,0
2016-09-27T21:04:00.811Z,0
2016-09-27T21:05:01.487Z,0
2016-09-27T21:06:02.198Z,0
2016-09-27T21:07:02.878Z,0
2016-09-27T21:08:03.595Z,0
2016-09-27T21:09:04.378Z,0
2016-09-27T21:10:05.087Z,0
2016-09-27T21:11:05.815Z,0
2016-09-27T21:12:06.510Z,0
2016-09-27T21:13:07.209Z,0